createdAt,value
2022-11-05T00:01:16.114Z,101287.41
2022-11-05T00:04:17.580Z,101286.59
2022-11-05T00:07:25.803Z,101294.50
2022-11-05T00:10:30.196Z,101299.72
2022-11-05T00:13:31.564Z,101295.50
2022-11-05T00:16:32.897Z,101294.84
2022-11-05T00:19:34.226Z,101296.59
2022-11-05T00:22:35.719Z,101301.03
2022-11-05T00:25:37.044Z,101296.03
2022-11-05T00:28:40.158Z,101300.47
2022-11-05T00:31:41.498Z,101303.16
2022-11-05T00:34:43.091Z,101305.72
2022-11-05T00:37:49.836Z,101303.06
2022-11-05T00:40:51.834Z,101310.81
2022-11-05T00:43:53.172Z,101314.22
2022-11-05T00:46:59.633Z,101321.91
2022-11-05T00:50:01.316Z,101323.75
2022-11-05T00:53:03.434Z,101324.56
2022-11-05T00:56:04.864Z,101327.16
2022-11-05T00:59:06.210Z,101321.22
2022-11-05T01:02:07.725Z,101328.03
2022-11-05T01:05:09.138Z,101331.50
2022-11-05T01:08:11.937Z,101328.19
2022-11-05T01:11:15.842Z,101327.38
2022-11-05T01:14:17.197Z,101337.66
2022-11-05T01:17:18.547Z,101341.97
2022-11-05T01:20:19.907Z,101345.47
2022-11-05T01:23:21.553Z,101337.03
2022-11-05T01:26:23.180Z,101338.78
2022-11-05T01:29:24.574Z,101338.84
2022-11-05T01:32:25.952Z,101339.75
2022-11-05T01:35:27.288Z,101339.78
2022-11-05T01:38:28.620Z,101341.53
2022-11-05T01:41:30.292Z,101343.25
2022-11-05T01:44:53.245Z,101345.03
2022-11-05T01:47:57.663Z,101344.16
2022-11-05T01:51:02.652Z,101342.47
2022-11-05T01:54:09.744Z,101356.16
2022-11-05T01:57:11.609Z,101351.03
2022-11-05T02:00:13.464Z,101350.22
2022-11-05T02:03:17.793Z,101358.78
2022-11-05T02:06:19.705Z,101353.78
2022-11-05T02:09:30.704Z,101351.25
2022-11-05T02:12:33.402Z,101360.59
2022-11-05T02:16:19.654Z,101352.94
2022-11-05T02:19:55.175Z,101353.81
2022-11-05T02:23:25.836Z,101355.47
2022-11-05T02:26:45.089Z,101360.63
2022-11-05T02:30:05.420Z,101359.06
2022-11-05T02:33:15.378Z,101365.91
2022-11-05T02:36:42.059Z,101363.38
2022-11-05T02:40:08.310Z,101365.91
2022-11-05T02:43:53.630Z,101362.50
2022-11-05T02:47:18.298Z,101366.75
2022-11-05T02:50:30.247Z,101361.56
2022-11-05T02:53:41.659Z,101366.69
2022-11-05T02:56:48.043Z,101360.78
2022-11-05T02:59:49.370Z,101370.19
2022-11-05T03:02:50.897Z,101365.06
2022-11-05T03:06:27.048Z,101355.75
2022-11-05T03:09:43.607Z,101362.72
2022-11-05T03:12:54.749Z,101361.06
2022-11-05T03:16:04.502Z,101372.19
2022-11-05T03:19:20.200Z,101359.44
2022-11-05T03:22:28.415Z,101375.75
2022-11-05T03:25:30.951Z,101380.97
2022-11-05T03:28:36.413Z,101380.22
2022-11-05T03:31:40.834Z,101380.41
2022-11-05T03:34:47.017Z,101378.81
2022-11-05T03:37:51.181Z,101375.41
2022-11-05T03:40:56.880Z,101378.84
2022-11-05T03:44:03.564Z,101380.56
2022-11-05T03:47:10.337Z,101385.66
2022-11-05T03:50:20.370Z,101385.66
2022-11-05T03:53:27.844Z,101391.63
2022-11-05T03:56:34.061Z,101386.50
2022-11-05T03:59:44.821Z,101392.47
2022-11-05T04:02:46.318Z,101390.78
2022-11-05T04:05:48.185Z,101401.00
2022-11-05T04:08:49.533Z,101397.69
2022-11-05T04:11:50.933Z,101401.94
2022-11-05T04:14:52.289Z,101405.38
2022-11-05T04:17:53.602Z,101407.97
2022-11-05T04:20:54.930Z,101414.03
2022-11-05T04:23:56.341Z,101420.00
2022-11-05T04:26:57.662Z,101422.59
2022-11-05T04:29:59.066Z,101424.41
2022-11-05T04:33:07.012Z,101427.13
2022-11-05T04:36:08.586Z,101422.91
2022-11-05T04:39:10.067Z,101424.72
2022-11-05T04:42:11.391Z,101436.69
2022-11-05T04:45:12.791Z,101427.28
2022-11-05T04:48:14.126Z,101428.91
2022-11-05T04:51:15.497Z,101432.28
2022-11-05T04:54:16.831Z,101429.78
2022-11-05T04:57:18.210Z,101436.63
2022-11-05T05:00:21.347Z,101434.91
2022-11-05T05:03:22.655Z,101434.91
2022-11-05T05:06:24.016Z,101432.41
2022-11-05T05:09:25.366Z,101435.00
2022-11-05T05:12:26.697Z,101432.50
2022-11-05T05:15:28.033Z,101426.56
2022-11-05T05:18:29.373Z,101424.91
2022-11-05T05:21:30.703Z,101427.44
2022-11-05T05:24:32.039Z,101430.84
2022-11-05T05:27:33.401Z,101435.13
2022-11-05T05:30:34.763Z,101439.38
2022-11-05T05:33:36.164Z,101433.44
2022-11-05T05:36:37.737Z,101450.50
2022-11-05T05:39:39.077Z,101450.47
2022-11-05T05:42:43.326Z,101452.19
2022-11-05T05:45:45.009Z,101450.50
2022-11-05T05:48:51.130Z,101452.19
2022-11-05T05:51:52.460Z,101453.06
2022-11-05T05:54:53.789Z,101453.13
2022-11-05T05:57:55.142Z,101456.53
2022-11-05T06:01:00.581Z,101466.75
2022-11-05T06:04:02.172Z,101466.72
2022-11-05T06:07:03.557Z,101473.50
2022-11-05T06:10:05.477Z,101488.81
2022-11-05T06:13:06.845Z,101473.50
2022-11-05T06:16:09.524Z,101470.00
2022-11-05T06:19:10.946Z,101477.63
2022-11-05T06:22:12.422Z,101475.84
2022-11-05T06:25:13.894Z,101483.53
2022-11-05T06:28:15.236Z,101489.47
2022-11-05T06:31:17.166Z,101490.34
2022-11-05T06:34:18.529Z,101491.19
2022-11-05T06:37:19.874Z,101492.91
2022-11-05T06:40:21.216Z,101493.75
2022-11-05T06:43:22.585Z,101493.75
2022-11-05T06:46:23.921Z,101499.69
2022-11-05T06:49:25.268Z,101505.63
2022-11-05T06:52:26.626Z,101504.72
2022-11-05T06:55:30.150Z,101514.91
2022-11-05T06:58:31.980Z,101516.72
2022-11-05T07:01:33.466Z,101522.50
2022-11-05T07:04:34.894Z,101519.84
2022-11-05T07:07:40.839Z,101523.09
2022-11-05T07:10:42.257Z,101517.91
2022-11-05T07:13:43.591Z,101518.66
2022-11-05T07:16:45.043Z,101514.25
2022-11-05T07:19:46.384Z,101519.22
2022-11-05T07:22:47.762Z,101520.84
2022-11-05T07:25:49.093Z,101534.38
2022-11-05T07:28:50.436Z,101530.81
2022-11-05T07:31:51.805Z,101534.97
2022-11-05T07:34:53.152Z,101531.38
2022-11-05T07:37:55.315Z,101538.00
2022-11-05T07:40:59.342Z,101537.03
2022-11-05T07:44:00.729Z,101544.50
2022-11-05T07:47:02.068Z,101540.03
2022-11-05T07:50:03.690Z,101549.31
2022-11-05T07:53:12.612Z,101555.97
2022-11-05T07:56:15.214Z,101562.69
2022-11-05T07:59:16.534Z,101556.53
2022-11-05T08:02:18.032Z,101562.31
2022-11-05T08:05:19.462Z,101562.16
2022-11-05T08:08:20.840Z,101561.13
2022-11-05T08:11:22.197Z,101562.69
2022-11-05T08:14:23.578Z,101560.88
2022-11-05T08:17:24.937Z,101558.16
2022-11-05T08:20:26.556Z,101567.22
2022-11-05T08:23:29.282Z,101563.50
2022-11-05T08:26:30.637Z,101562.38
2022-11-05T08:29:31.996Z,101555.19
2022-11-05T08:32:34.030Z,101553.06
2022-11-05T08:35:37.157Z,101543.34
2022-11-05T08:38:38.464Z,101551.53
2022-11-05T08:41:40.053Z,101546.84
2022-11-05T08:44:41.439Z,101543.88
2022-11-05T08:47:42.899Z,101553.72
2022-11-05T08:50:46.008Z,101548.13
2022-11-05T08:53:47.361Z,101550.19
2022-11-05T08:56:48.734Z,101559.13
2022-11-05T08:59:50.274Z,101552.66
2022-11-05T09:02:51.612Z,101547.78
2022-11-05T09:05:52.930Z,101550.69
2022-11-05T09:08:54.515Z,101556.28
2022-11-05T09:12:11.656Z,101554.91
2022-11-05T09:15:13.438Z,101559.56
2022-11-05T09:18:14.909Z,101554.72
2022-11-05T09:21:17.106Z,101567.13
2022-11-05T09:24:18.622Z,101565.78
2022-11-05T09:27:19.962Z,101562.47
2022-11-05T09:30:21.298Z,101567.22
2022-11-05T09:33:24.880Z,101571.91
2022-11-05T09:36:26.211Z,101572.28
2022-11-05T09:39:27.614Z,101563.44
2022-11-05T09:42:34.604Z,101570.84
2022-11-05T09:45:36.146Z,101574.09
2022-11-05T09:48:38.579Z,101574.31
2022-11-05T09:51:40.766Z,101573.06
2022-11-05T09:54:42.353Z,101570.63
2022-11-05T09:57:48.957Z,101570.84
2022-11-05T10:00:50.666Z,101577.72
2022-11-05T10:03:56.672Z,101577.31
2022-11-05T10:07:01.508Z,101577.25
2022-11-05T10:10:06.770Z,101580.28
2022-11-05T10:13:29.693Z,101586.66
2022-11-05T10:16:41.044Z,101588.97
2022-11-05T10:20:00.185Z,101588.59
2022-11-05T10:23:21.925Z,101590.88
2022-11-05T10:26:26.246Z,101596.34
2022-11-05T10:29:30.260Z,101590.84
2022-11-05T10:32:35.726Z,101588.09
2022-11-05T10:35:47.295Z,101586.41
2022-11-05T10:38:49.417Z,101592.91
2022-11-05T10:42:14.889Z,101603.59
2022-11-05T10:45:31.604Z,101607.50
2022-11-05T10:49:12.032Z,101611.41
2022-11-05T10:52:26.398Z,101609.16
2022-11-05T10:55:34.699Z,101614.59
2022-11-05T10:58:36.040Z,101604.72
2022-11-05T11:01:37.604Z,101602.75
2022-11-05T11:04:39.762Z,101594.84
2022-11-05T11:07:41.130Z,101600.69
2022-11-05T11:10:49.939Z,101592.25
2022-11-05T11:14:19.485Z,101594.56
2022-11-05T11:17:27.505Z,101599.31
2022-11-05T11:20:31.286Z,101592.03
2022-11-05T11:23:40.932Z,101586.94
2022-11-05T11:26:42.384Z,101590.44
2022-11-05T11:29:49.526Z,101596.38
2022-11-05T11:33:05.700Z,101595.97
2022-11-05T11:36:10.614Z,101601.34
2022-11-05T11:39:18.778Z,101602.44
2022-11-05T11:42:39.297Z,101589.44
2022-11-05T11:45:50.911Z,101592.47
2022-11-05T11:48:52.297Z,101579.66
2022-11-05T11:52:04.993Z,101585.75
2022-11-05T11:55:09.344Z,101586.00
2022-11-05T11:58:11.143Z,101582.56
2022-11-05T12:01:24.717Z,101585.25
2022-11-05T12:04:26.009Z,101581.13
2022-11-05T12:07:42.625Z,101585.81
2022-11-05T12:10:52.954Z,101580.53
2022-11-05T12:14:27.974Z,101581.22
2022-11-05T12:17:49.859Z,101577.06
2022-11-05T12:20:58.463Z,101578.66
2022-11-05T12:24:18.298Z,101573.97
2022-11-05T12:27:32.443Z,101570.00
2022-11-05T12:30:47.104Z,101576.75
2022-11-05T12:33:54.964Z,101576.75
2022-11-05T12:37:30.120Z,101574.97
2022-11-05T12:40:34.183Z,101577.53
2022-11-05T12:43:44.603Z,101580.03
2022-11-05T12:47:03.271Z,101581.78
2022-11-05T12:50:29.639Z,101583.88
2022-11-05T12:53:52.144Z,101588.94
2022-11-05T12:56:57.804Z,101584.25
2022-11-05T13:00:21.670Z,101593.81
2022-11-05T13:03:44.211Z,101585.81
2022-11-05T13:06:52.228Z,101587.63
2022-11-05T13:10:06.129Z,101585.75
2022-11-05T13:13:19.072Z,101582.25
2022-11-05T13:16:49.040Z,101578.75
2022-11-05T13:19:56.369Z,101588.41
2022-11-05T13:23:17.928Z,101586.03
2022-11-05T13:26:37.454Z,101575.94
2022-11-05T13:29:48.431Z,101585.25
2022-11-05T13:32:59.881Z,101578.63
2022-11-05T13:36:19.856Z,101579.88
2022-11-05T13:39:26.789Z,101571.25
2022-11-05T13:42:37.141Z,101574.91
2022-11-05T13:46:05.420Z,101581.00
2022-11-05T13:49:43.769Z,101575.41
2022-11-05T13:52:57.166Z,101574.78
2022-11-05T13:56:13.295Z,101578.97
2022-11-05T13:59:33.895Z,101582.38
2022-11-05T14:02:40.321Z,101574.13
2022-11-05T14:05:43.192Z,101578.63
2022-11-05T14:08:46.040Z,101578.28
2022-11-05T14:11:56.463Z,101576.81
2022-11-05T14:15:17.681Z,101577.88
2022-11-05T14:18:38.066Z,101576.00
2022-11-05T14:21:48.703Z,101581.66
2022-11-05T14:24:50.129Z,101583.28
2022-11-05T14:27:52.603Z,101579.00
2022-11-05T14:30:54.074Z,101580.97
2022-11-05T14:34:03.491Z,101588.06
2022-11-05T14:37:33.187Z,101591.91
2022-11-05T14:40:43.335Z,101590.56
2022-11-05T14:43:58.107Z,101591.94
2022-11-05T14:47:19.894Z,101605.91
2022-11-05T14:50:33.386Z,101599.25
2022-11-05T14:53:37.799Z,101604.69
2022-11-05T14:56:56.081Z,101608.66
2022-11-05T14:59:58.072Z,101610.09
2022-11-05T15:03:24.556Z,101601.88
2022-11-05T15:06:27.793Z,101608.13
2022-11-05T15:09:29.064Z,101610.13
2022-11-05T15:12:47.464Z,101601.47
2022-11-05T15:15:49.746Z,101605.16
2022-11-05T15:18:53.793Z,101606.88
2022-11-05T15:21:58.760Z,101609.81
2022-11-05T15:25:00.377Z,101608.25
2022-11-05T15:28:14.485Z,101622.06
2022-11-05T15:31:15.826Z,101623.00
2022-11-05T15:34:31.718Z,101620.63
2022-11-05T15:37:33.826Z,101627.63
2022-11-05T15:40:35.280Z,101615.72
2022-11-05T15:43:48.077Z,101618.38
2022-11-05T15:47:04.941Z,101610.97
2022-11-05T15:50:15.367Z,101613.59
2022-11-05T15:53:44.190Z,101604.13
2022-11-05T15:56:49.847Z,101608.56
2022-11-05T15:59:51.606Z,101608.63
2022-11-05T16:03:15.527Z,101606.94
2022-11-05T16:06:17.178Z,101606.25
2022-11-05T16:09:22.889Z,101613.28
2022-11-05T16:12:35.955Z,101616.06
2022-11-05T16:15:37.346Z,101613.72
2022-11-05T16:18:39.048Z,101611.25
2022-11-05T16:21:53.896Z,101620.06
2022-11-05T16:24:55.241Z,101614.09
2022-11-05T16:27:58.305Z,101620.19
2022-11-05T16:31:03.027Z,101619.47
2022-11-05T16:34:05.063Z,101611.78
2022-11-05T16:37:10.500Z,101618.63
2022-11-05T16:40:21.023Z,101613.59
2022-11-05T16:43:24.609Z,101623.84
2022-11-05T16:46:28.269Z,101619.63
2022-11-05T16:49:29.629Z,101618.00
2022-11-05T16:52:30.938Z,101618.91
2022-11-05T16:55:33.457Z,101626.69
2022-11-05T16:58:34.824Z,101630.28
2022-11-05T17:01:39.160Z,101635.47
2022-11-05T17:04:40.634Z,101623.59
2022-11-05T17:07:42.142Z,101627.09
2022-11-05T17:10:43.653Z,101632.44
2022-11-05T17:13:45.576Z,101637.75
2022-11-05T17:16:47.022Z,101640.38
2022-11-05T17:19:48.391Z,101640.50
2022-11-05T17:22:49.769Z,101646.72
2022-11-05T17:25:54.069Z,101647.69
2022-11-05T17:28:55.415Z,101652.19
2022-11-05T17:31:56.775Z,101654.84
2022-11-05T17:34:58.134Z,101659.22
2022-11-05T17:37:59.491Z,101662.72
2022-11-05T17:41:01.068Z,101667.06
2022-11-05T17:44:02.477Z,101654.13
2022-11-05T17:47:03.893Z,101655.69
2022-11-05T17:50:06.983Z,101666.63
2022-11-05T17:53:08.916Z,101662.28
2022-11-05T17:56:22.167Z,101661.22
2022-11-05T17:59:29.433Z,101661.13
2022-11-05T18:02:30.875Z,101653.34
2022-11-05T18:05:34.383Z,101654.94
2022-11-05T18:08:35.860Z,101660.94
2022-11-05T18:11:38.780Z,101655.78
2022-11-05T18:14:40.099Z,101660.19
2022-11-05T18:17:42.768Z,101663.66
2022-11-05T18:20:44.338Z,101661.94
2022-11-05T18:23:45.785Z,101663.66
2022-11-05T18:26:47.540Z,101666.28
2022-11-05T18:29:48.875Z,101662.06
2022-11-05T18:32:50.270Z,101657.03
2022-11-05T18:35:51.678Z,101657.19
2022-11-05T18:38:54.013Z,101641.88
2022-11-05T18:41:55.449Z,101641.13
2022-11-05T18:44:56.785Z,101638.66
2022-11-05T18:47:59.902Z,101638.72
2022-11-05T18:51:07.301Z,101641.34
2022-11-05T18:54:08.746Z,101635.44
2022-11-05T18:57:10.203Z,101636.31
2022-11-05T19:00:12.240Z,101638.06
2022-11-05T19:03:13.585Z,101638.94
2022-11-05T19:06:14.951Z,101643.22
2022-11-05T19:09:16.362Z,101640.63
2022-11-05T19:12:17.732Z,101639.00
2022-11-05T19:15:19.217Z,101640.72
2022-11-05T19:18:20.631Z,101636.41
2022-11-05T19:21:25.004Z,101641.50
2022-11-05T19:24:26.480Z,101636.41
2022-11-05T19:27:27.914Z,101637.31
2022-11-05T19:30:29.471Z,101633.84
2022-11-05T19:33:31.758Z,101639.00
2022-11-05T19:36:33.519Z,101638.13
2022-11-05T19:39:35.762Z,101634.72
2022-11-05T19:42:37.143Z,101639.00
2022-11-05T19:45:44.775Z,101645.03
2022-11-05T19:48:46.589Z,101643.34
2022-11-05T19:51:47.940Z,101640.88
2022-11-05T19:54:49.278Z,101646.06
2022-11-05T19:57:50.632Z,101648.69
2022-11-05T20:00:55.232Z,101643.53
2022-11-05T20:03:58.257Z,101639.38
2022-11-05T20:06:59.681Z,101642.00
2022-11-05T20:10:01.272Z,101633.41
2022-11-05T20:13:02.646Z,101636.81
2022-11-05T20:16:04.949Z,101633.41
2022-11-05T20:19:08.810Z,101629.13
2022-11-05T20:22:10.155Z,101624.88
2022-11-05T20:25:12.401Z,101640.31
2022-11-05T20:28:14.184Z,101638.63
2022-11-05T20:31:17.233Z,101633.47
2022-11-05T20:34:18.567Z,101636.16
2022-11-05T20:37:19.962Z,101641.28
2022-11-05T20:40:21.393Z,101642.19
2022-11-05T20:43:27.588Z,101634.50
2022-11-05T20:46:31.586Z,101643.16
2022-11-05T20:49:32.995Z,101634.66
2022-11-05T20:52:34.325Z,101633.81
2022-11-05T20:55:46.798Z,101632.13
2022-11-05T20:58:48.699Z,101641.56
2022-11-05T21:01:50.696Z,101644.13
2022-11-05T21:04:52.154Z,101636.47
2022-11-05T21:07:53.588Z,101630.50
2022-11-05T21:10:56.272Z,101635.53
2022-11-05T21:13:57.617Z,101627.81
2022-11-05T21:16:58.954Z,101628.63
2022-11-05T21:20:00.291Z,101633.72
2022-11-05T21:23:01.667Z,101626.84
2022-11-05T21:26:08.263Z,101625.09
2022-11-05T21:29:09.640Z,101624.25
2022-11-05T21:32:11.032Z,101613.97
2022-11-05T21:35:12.419Z,101618.34
2022-11-05T21:38:16.440Z,101608.03
2022-11-05T21:41:17.976Z,101608.97
2022-11-05T21:44:19.364Z,101613.25
2022-11-05T21:47:20.772Z,101620.25
2022-11-05T21:50:22.666Z,101612.63
2022-11-05T21:53:24.484Z,101616.91
2022-11-05T21:56:26.693Z,101606.72
2022-11-05T21:59:28.557Z,101606.00
2022-11-05T22:02:30.052Z,101604.41
2022-11-05T22:05:31.673Z,101606.16
2022-11-05T22:08:33.020Z,101596.78
2022-11-05T22:11:35.788Z,101589.97
2022-11-05T22:14:37.678Z,101602.88
2022-11-05T22:17:42.636Z,101596.78
2022-11-05T22:20:47.874Z,101599.41
2022-11-05T22:23:49.281Z,101592.56
2022-11-05T22:26:50.783Z,101592.63
2022-11-05T22:29:52.154Z,101584.13
2022-11-05T22:32:53.562Z,101581.56
2022-11-05T22:35:54.919Z,101580.75
2022-11-05T22:38:56.274Z,101573.84
2022-11-05T22:41:58.459Z,101578.94
2022-11-05T22:44:59.855Z,101573.78
2022-11-05T22:48:06.397Z,101569.47
2022-11-05T22:51:13.108Z,101570.28
2022-11-05T22:54:14.482Z,101576.22
2022-11-05T22:57:15.847Z,101567.66
2022-11-05T23:00:17.547Z,101567.72
2022-11-05T23:03:18.935Z,101566.06
2022-11-05T23:06:31.819Z,101565.34
2022-11-05T23:09:35.147Z,101565.50
2022-11-05T23:12:36.766Z,101560.91
2022-11-05T23:15:38.083Z,101554.41
2022-11-05T23:18:39.520Z,101552.50
2022-11-05T23:21:40.887Z,101558.41
2022-11-05T23:24:42.388Z,101546.38
2022-11-05T23:27:44.996Z,101548.84
2022-11-05T23:30:46.485Z,101542.75
2022-11-05T23:33:48.665Z,101534.97
2022-11-05T23:36:50.048Z,101533.28
2022-11-05T23:39:51.489Z,101537.50
2022-11-05T23:42:53.419Z,101529.78
2022-11-05T23:45:58.483Z,101524.53
2022-11-05T23:48:59.828Z,101526.22
2022-11-05T23:52:01.197Z,101529.66
2022-11-05T23:55:02.821Z,101521.84
2022-11-05T23:58:04.186Z,101520.94
